Terminal Aerodrome Forecast
Issued by NWS Charleston, WV

Current Version | Previous Version | Graphics & Text | Print | Product List | Glossary On
Versions: 1 2 3 4 5 6 7 8 9 10 11 12 13 14 15 16 17 18 19 20 21 22 23
000
FTUS41 KRLX 101509 RRA
TAFBKW
TAF
KBKW 101509Z 1015/1112 29010KT 6SM -SHSN OVC026
     FM101800 26010G17KT P6SM BKN040
     FM102300 25008KT P6SM SCT110=

USA.gov is the U.S. government's official web portal to all federal, state and local government web resources and services.